sensor_id;sensor_type;location;lat;lon;timestamp;P1;durP1;ratioP1;P2;durP2;ratioP2
65045;SDS011;54657;52.022;5.534;2023-04-28T00:01:41;4.93;;;4.10;;
65045;SDS011;54657;52.022;5.534;2023-04-28T00:04:06;5.28;;;4.00;;
65045;SDS011;54657;52.022;5.534;2023-04-28T00:06:32;6.97;;;3.83;;
65045;SDS011;54657;52.022;5.534;2023-04-28T00:08:58;5.15;;;4.05;;
65045;SDS011;54657;52.022;5.534;2023-04-28T00:11:24;4.43;;;3.80;;
65045;SDS011;54657;52.022;5.534;2023-04-28T00:13:49;6.07;;;3.90;;
65045;SDS011;54657;52.022;5.534;2023-04-28T00:16:15;8.48;;;3.97;;
65045;SDS011;54657;52.022;5.534;2023-04-28T00:18:41;3.78;;;3.40;;
65045;SDS011;54657;52.022;5.534;2023-04-28T00:21:06;6.38;;;3.63;;
65045;SDS011;54657;52.022;5.534;2023-04-28T00:23:32;5.43;;;3.75;;
65045;SDS011;54657;52.022;5.534;2023-04-28T00:25:58;6.28;;;4.05;;
65045;SDS011;54657;52.022;5.534;2023-04-28T00:28:23;6.03;;;4.05;;
65045;SDS011;54657;52.022;5.534;2023-04-28T00:30:49;6.35;;;3.92;;
65045;SDS011;54657;52.022;5.534;2023-04-28T00:33:14;6.70;;;3.90;;
65045;SDS011;54657;52.022;5.534;2023-04-28T00:35:40;6.43;;;3.60;;
65045;SDS011;54657;52.022;5.534;2023-04-28T00:38:06;5.32;;;3.63;;
65045;SDS011;54657;52.022;5.534;2023-04-28T00:40:35;6.03;;;3.80;;
65045;SDS011;54657;52.022;5.534;2023-04-28T00:43:02;4.15;;;3.38;;
65045;SDS011;54657;52.022;5.534;2023-04-28T00:45:28;4.78;;;3.53;;
65045;SDS011;54657;52.022;5.534;2023-04-28T00:47:54;6.28;;;3.90;;
65045;SDS011;54657;52.022;5.534;2023-04-28T00:50:22;5.88;;;3.92;;
65045;SDS011;54657;52.022;5.534;2023-04-28T00:52:50;4.25;;;3.60;;
65045;SDS011;54657;52.022;5.534;2023-04-28T00:55:16;6.15;;;4.07;;
65045;SDS011;54657;52.022;5.534;2023-04-28T00:57:42;6.78;;;3.65;;
65045;SDS011;54657;52.022;5.534;2023-04-28T01:00:08;5.53;;;3.72;;
65045;SDS011;54657;52.022;5.534;2023-04-28T01:02:34;4.95;;;4.03;;
65045;SDS011;54657;52.022;5.534;2023-04-28T01:05:00;4.93;;;4.10;;
65045;SDS011;54657;52.022;5.534;2023-04-28T01:07:27;5.13;;;3.65;;
65045;SDS011;54657;52.022;5.534;2023-04-28T01:09:53;6.35;;;3.70;;
65045;SDS011;54657;52.022;5.534;2023-04-28T01:12:18;6.20;;;3.90;;
65045;SDS011;54657;52.022;5.534;2023-04-28T01:14:44;6.28;;;3.72;;
65045;SDS011;54657;52.022;5.534;2023-04-28T01:17:10;6.97;;;3.67;;
65045;SDS011;54657;52.022;5.534;2023-04-28T01:19:36;5.75;;;3.72;;
65045;SDS011;54657;52.022;5.534;2023-04-28T01:22:02;6.68;;;3.72;;
65045;SDS011;54657;52.022;5.534;2023-04-28T01:24:28;8.10;;;3.95;;
65045;SDS011;54657;52.022;5.534;2023-04-28T01:26:54;4.25;;;3.70;;
65045;SDS011;54657;52.022;5.534;2023-04-28T01:29:20;5.75;;;4.07;;
65045;SDS011;54657;52.022;5.534;2023-04-28T01:31:45;5.85;;;3.88;;
65045;SDS011;54657;52.022;5.534;2023-04-28T01:34:11;3.97;;;3.35;;
65045;SDS011;54657;52.022;5.534;2023-04-28T01:36:36;4.57;;;3.47;;
65045;SDS011;54657;52.022;5.534;2023-04-28T01:39:02;4.55;;;3.53;;
65045;SDS011;54657;52.022;5.534;2023-04-28T01:41:28;6.13;;;3.70;;
65045;SDS011;54657;52.022;5.534;2023-04-28T01:43:54;4.95;;;3.55;;
65045;SDS011;54657;52.022;5.534;2023-04-28T01:46:19;5.80;;;4.15;;
65045;SDS011;54657;52.022;5.534;2023-04-28T01:48:45;5.28;;;3.78;;
65045;SDS011;54657;52.022;5.534;2023-04-28T01:51:11;6.43;;;3.83;;
65045;SDS011;54657;52.022;5.534;2023-04-28T01:53:37;5.68;;;3.80;;
65045;SDS011;54657;52.022;5.534;2023-04-28T01:56:03;4.07;;;3.60;;
65045;SDS011;54657;52.022;5.534;2023-04-28T01:58:28;6.80;;;3.58;;
65045;SDS011;54657;52.022;5.534;2023-04-28T02:00:54;4.07;;;3.58;;
65045;SDS011;54657;52.022;5.534;2023-04-28T02:03:19;6.10;;;3.25;;
65045;SDS011;54657;52.022;5.534;2023-04-28T02:05:45;6.72;;;3.97;;
65045;SDS011;54657;52.022;5.534;2023-04-28T02:08:11;5.78;;;3.72;;
65045;SDS011;54657;52.022;5.534;2023-04-28T02:10:36;4.78;;;3.50;;
65045;SDS011;54657;52.022;5.534;2023-04-28T02:13:02;4.32;;;3.60;;
65045;SDS011;54657;52.022;5.534;2023-04-28T02:15:27;7.93;;;3.97;;
65045;SDS011;54657;52.022;5.534;2023-04-28T02:17:53;7.55;;;3.88;;
65045;SDS011;54657;52.022;5.534;2023-04-28T02:20:19;4.28;;;3.38;;
65045;SDS011;54657;52.022;5.534;2023-04-28T02:22:44;6.88;;;3.90;;
65045;SDS011;54657;52.022;5.534;2023-04-28T02:25:10;5.78;;;3.45;;
65045;SDS011;54657;52.022;5.534;2023-04-28T02:27:36;4.00;;;3.42;;
65045;SDS011;54657;52.022;5.534;2023-04-28T02:30:05;3.88;;;3.30;;
65045;SDS011;54657;52.022;5.534;2023-04-28T02:32:31;5.88;;;3.30;;
65045;SDS011;54657;52.022;5.534;2023-04-28T02:34:57;3.53;;;3.05;;
65045;SDS011;54657;52.022;5.534;2023-04-28T02:37:22;4.47;;;3.58;;
65045;SDS011;54657;52.022;5.534;2023-04-28T02:39:48;6.55;;;3.60;;
65045;SDS011;54657;52.022;5.534;2023-04-28T02:42:13;4.80;;;3.30;;
65045;SDS011;54657;52.022;5.534;2023-04-28T02:44:39;3.90;;;3.45;;
65045;SDS011;54657;52.022;5.534;2023-04-28T02:47:05;5.50;;;3.63;;
65045;SDS011;54657;52.022;5.534;2023-04-28T02:49:31;3.67;;;3.38;;
65045;SDS011;54657;52.022;5.534;2023-04-28T02:51:56;5.82;;;3.17;;
65045;SDS011;54657;52.022;5.534;2023-04-28T02:54:22;8.27;;;3.55;;
65045;SDS011;54657;52.022;5.534;2023-04-28T02:56:56;5.88;;;3.78;;
65045;SDS011;54657;52.022;5.534;2023-04-28T02:59:22;5.05;;;3.60;;
65045;SDS011;54657;52.022;5.534;2023-04-28T03:01:49;6.97;;;3.70;;
65045;SDS011;54657;52.022;5.534;2023-04-28T03:04:15;6.88;;;3.75;;
65045;SDS011;54657;52.022;5.534;2023-04-28T03:06:41;5.47;;;3.70;;
65045;SDS011;54657;52.022;5.534;2023-04-28T03:09:08;5.05;;;3.15;;
65045;SDS011;54657;52.022;5.534;2023-04-28T03:11:34;6.18;;;3.45;;
65045;SDS011;54657;52.022;5.534;2023-04-28T03:14:00;4.13;;;3.38;;
65045;SDS011;54657;52.022;5.534;2023-04-28T03:16:25;7.75;;;3.88;;
65045;SDS011;54657;52.022;5.534;2023-04-28T03:18:51;3.88;;;3.38;;
65045;SDS011;54657;52.022;5.534;2023-04-28T03:21:17;7.47;;;3.30;;
65045;SDS011;54657;52.022;5.534;2023-04-28T03:23:42;4.28;;;2.78;;
65045;SDS011;54657;52.022;5.534;2023-04-28T03:26:08;4.53;;;3.50;;
65045;SDS011;54657;52.022;5.534;2023-04-28T03:28:33;5.57;;;3.03;;
65045;SDS011;54657;52.022;5.534;2023-04-28T03:30:59;6.45;;;3.40;;
65045;SDS011;54657;52.022;5.534;2023-04-28T03:33:25;6.97;;;3.83;;
65045;SDS011;54657;52.022;5.534;2023-04-28T03:35:50;5.05;;;3.63;;
65045;SDS011;54657;52.022;5.534;2023-04-28T03:38:17;4.32;;;3.50;;
65045;SDS011;54657;52.022;5.534;2023-04-28T03:40:43;5.72;;;4.38;;
65045;SDS011;54657;52.022;5.534;2023-04-28T03:43:08;4.88;;;3.58;;
65045;SDS011;54657;52.022;5.534;2023-04-28T03:45:34;4.85;;;3.30;;
65045;SDS011;54657;52.022;5.534;2023-04-28T03:47:59;6.30;;;3.88;;
65045;SDS011;54657;52.022;5.534;2023-04-28T03:50:25;6.55;;;3.55;;
65045;SDS011;54657;52.022;5.534;2023-04-28T03:52:50;6.65;;;3.78;;
65045;SDS011;54657;52.022;5.534;2023-04-28T03:55:16;6.10;;;3.55;;
65045;SDS011;54657;52.022;5.534;2023-04-28T03:57:41;3.97;;;3.35;;
65045;SDS011;54657;52.022;5.534;2023-04-28T04:00:07;5.53;;;3.75;;
65045;SDS011;54657;52.022;5.534;2023-04-28T04:02:34;4.95;;;3.72;;
65045;SDS011;54657;52.022;5.534;2023-04-28T04:04:59;7.55;;;4.35;;
65045;SDS011;54657;52.022;5.534;2023-04-28T04:07:25;5.30;;;3.88;;
65045;SDS011;54657;52.022;5.534;2023-04-28T04:09:50;6.20;;;4.00;;
65045;SDS011;54657;52.022;5.534;2023-04-28T04:12:16;6.25;;;4.10;;
65045;SDS011;54657;52.022;5.534;2023-04-28T04:14:42;8.23;;;4.38;;
65045;SDS011;54657;52.022;5.534;2023-04-28T04:17:08;9.07;;;4.40;;
65045;SDS011;54657;52.022;5.534;2023-04-28T04:19:33;5.22;;;3.88;;
65045;SDS011;54657;52.022;5.534;2023-04-28T04:21:59;4.82;;;3.80;;
65045;SDS011;54657;52.022;5.534;2023-04-28T04:24:24;5.78;;;3.90;;
65045;SDS011;54657;52.022;5.534;2023-04-28T04:26:50;6.70;;;3.88;;
65045;SDS011;54657;52.022;5.534;2023-04-28T04:29:16;4.20;;;3.80;;
65045;SDS011;54657;52.022;5.534;2023-04-28T04:31:41;5.65;;;3.83;;
65045;SDS011;54657;52.022;5.534;2023-04-28T04:34:09;6.18;;;4.57;;
65045;SDS011;54657;52.022;5.534;2023-04-28T04:36:35;6.18;;;4.50;;
65045;SDS011;54657;52.022;5.534;2023-04-28T04:39:01;5.75;;;4.45;;
65045;SDS011;54657;52.022;5.534;2023-04-28T04:41:26;6.20;;;4.60;;
65045;SDS011;54657;52.022;5.534;2023-04-28T04:43:52;5.22;;;3.95;;
65045;SDS011;54657;52.022;5.534;2023-04-28T04:46:17;8.00;;;5.40;;
65045;SDS011;54657;52.022;5.534;2023-04-28T04:48:43;9.07;;;4.57;;
65045;SDS011;54657;52.022;5.534;2023-04-28T04:51:09;6.05;;;4.20;;
65045;SDS011;54657;52.022;5.534;2023-04-28T04:53:35;6.53;;;4.82;;
65045;SDS011;54657;52.022;5.534;2023-04-28T04:56:01;7.35;;;4.85;;
65045;SDS011;54657;52.022;5.534;2023-04-28T04:58:26;9.48;;;5.55;;
65045;SDS011;54657;52.022;5.534;2023-04-28T05:00:52;9.23;;;5.75;;
65045;SDS011;54657;52.022;5.534;2023-04-28T05:03:18;8.65;;;5.55;;
65045;SDS011;54657;52.022;5.534;2023-04-28T05:05:43;9.35;;;5.75;;
65045;SDS011;54657;52.022;5.534;2023-04-28T05:08:09;6.47;;;5.22;;
65045;SDS011;54657;52.022;5.534;2023-04-28T05:10:35;9.18;;;6.00;;
65045;SDS011;54657;52.022;5.534;2023-04-28T05:13:01;7.32;;;5.45;;
65045;SDS011;54657;52.022;5.534;2023-04-28T05:15:26;7.60;;;5.50;;
65045;SDS011;54657;52.022;5.534;2023-04-28T05:17:52;7.43;;;5.95;;
65045;SDS011;54657;52.022;5.534;2023-04-28T05:20:18;9.07;;;6.18;;
65045;SDS011;54657;52.022;5.534;2023-04-28T05:22:44;9.85;;;6.10;;
65045;SDS011;54657;52.022;5.534;2023-04-28T05:25:10;9.95;;;6.60;;
65045;SDS011;54657;52.022;5.534;2023-04-28T05:27:35;8.90;;;6.40;;
65045;SDS011;54657;52.022;5.534;2023-04-28T05:30:08;7.30;;;5.82;;
65045;SDS011;54657;52.022;5.534;2023-04-28T05:32:34;8.40;;;6.55;;
65045;SDS011;54657;52.022;5.534;2023-04-28T05:35:01;10.88;;;7.00;;
65045;SDS011;54657;52.022;5.534;2023-04-28T05:37:27;7.60;;;5.82;;
65045;SDS011;54657;52.022;5.534;2023-04-28T05:39:52;8.07;;;6.63;;
65045;SDS011;54657;52.022;5.534;2023-04-28T05:42:18;9.05;;;6.82;;
65045;SDS011;54657;52.022;5.534;2023-04-28T05:44:44;8.55;;;6.35;;
65045;SDS011;54657;52.022;5.534;2023-04-28T05:47:09;10.52;;;6.32;;
65045;SDS011;54657;52.022;5.534;2023-04-28T05:49:36;10.18;;;6.93;;
65045;SDS011;54657;52.022;5.534;2023-04-28T05:52:02;8.60;;;6.07;;
65045;SDS011;54657;52.022;5.534;2023-04-28T05:54:27;11.88;;;6.93;;
65045;SDS011;54657;52.022;5.534;2023-04-28T05:56:53;12.20;;;6.82;;
65045;SDS011;54657;52.022;5.534;2023-04-28T05:59:19;8.07;;;6.43;;
65045;SDS011;54657;52.022;5.534;2023-04-28T06:01:44;11.00;;;6.45;;
65045;SDS011;54657;52.022;5.534;2023-04-28T06:04:10;11.13;;;6.90;;
65045;SDS011;54657;52.022;5.534;2023-04-28T06:06:36;8.68;;;6.93;;
65045;SDS011;54657;52.022;5.534;2023-04-28T06:09:02;10.82;;;7.78;;
65045;SDS011;54657;52.022;5.534;2023-04-28T06:11:27;8.35;;;6.85;;
65045;SDS011;54657;52.022;5.534;2023-04-28T06:13:53;9.40;;;7.18;;
65045;SDS011;54657;52.022;5.534;2023-04-28T06:16:19;9.60;;;6.55;;
65045;SDS011;54657;52.022;5.534;2023-04-28T06:18:45;9.05;;;7.10;;
65045;SDS011;54657;52.022;5.534;2023-04-28T06:21:10;12.15;;;6.35;;
65045;SDS011;54657;52.022;5.534;2023-04-28T06:23:36;10.50;;;7.45;;
65045;SDS011;54657;52.022;5.534;2023-04-28T06:26:04;8.90;;;7.22;;
65045;SDS011;54657;52.022;5.534;2023-04-28T06:28:30;14.13;;;7.97;;
65045;SDS011;54657;52.022;5.534;2023-04-28T06:30:55;9.32;;;7.03;;
65045;SDS011;54657;52.022;5.534;2023-04-28T06:33:21;10.77;;;8.57;;
65045;SDS011;54657;52.022;5.534;2023-04-28T06:35:46;10.10;;;7.82;;
65045;SDS011;54657;52.022;5.534;2023-04-28T06:38:12;11.95;;;8.13;;
65045;SDS011;54657;52.022;5.534;2023-04-28T06:40:38;9.52;;;7.63;;
65045;SDS011;54657;52.022;5.534;2023-04-28T06:43:04;9.35;;;7.63;;
65045;SDS011;54657;52.022;5.534;2023-04-28T06:45:30;11.20;;;7.45;;
65045;SDS011;54657;52.022;5.534;2023-04-28T06:47:56;11.20;;;7.88;;
65045;SDS011;54657;52.022;5.534;2023-04-28T06:50:22;12.60;;;7.90;;
65045;SDS011;54657;52.022;5.534;2023-04-28T06:52:47;9.23;;;7.57;;
65045;SDS011;54657;52.022;5.534;2023-04-28T06:55:14;12.07;;;7.93;;
65045;SDS011;54657;52.022;5.534;2023-04-28T06:57:43;12.25;;;8.45;;
65045;SDS011;54657;52.022;5.534;2023-04-28T07:00:09;13.05;;;8.10;;
65045;SDS011;54657;52.022;5.534;2023-04-28T07:02:35;10.98;;;8.35;;
65045;SDS011;54657;52.022;5.534;2023-04-28T07:05:01;12.00;;;8.05;;
65045;SDS011;54657;52.022;5.534;2023-04-28T07:07:27;11.02;;;8.32;;
65045;SDS011;54657;52.022;5.534;2023-04-28T07:09:53;12.88;;;8.75;;
65045;SDS011;54657;52.022;5.534;2023-04-28T07:12:19;12.30;;;9.00;;
65045;SDS011;54657;52.022;5.534;2023-04-28T07:14:45;9.85;;;8.50;;
65045;SDS011;54657;52.022;5.534;2023-04-28T07:17:11;14.52;;;9.80;;
65045;SDS011;54657;52.022;5.534;2023-04-28T07:19:36;14.05;;;9.57;;
65045;SDS011;54657;52.022;5.534;2023-04-28T07:22:02;13.02;;;9.43;;
65045;SDS011;54657;52.022;5.534;2023-04-28T07:24:28;13.13;;;8.52;;
65045;SDS011;54657;52.022;5.534;2023-04-28T07:26:54;12.18;;;8.98;;
65045;SDS011;54657;52.022;5.534;2023-04-28T07:29:21;12.07;;;9.63;;
65045;SDS011;54657;52.022;5.534;2023-04-28T07:31:46;12.93;;;8.98;;
65045;SDS011;54657;52.022;5.534;2023-04-28T07:34:12;13.13;;;9.85;;
65045;SDS011;54657;52.022;5.534;2023-04-28T07:36:37;12.82;;;9.75;;
65045;SDS011;54657;52.022;5.534;2023-04-28T07:39:03;17.77;;;10.27;;
65045;SDS011;54657;52.022;5.534;2023-04-28T07:41:28;14.60;;;10.85;;
65045;SDS011;54657;52.022;5.534;2023-04-28T07:43:54;13.07;;;10.00;;
65045;SDS011;54657;52.022;5.534;2023-04-28T07:46:20;12.88;;;10.55;;
65045;SDS011;54657;52.022;5.534;2023-04-28T07:48:46;12.70;;;10.55;;
65045;SDS011;54657;52.022;5.534;2023-04-28T07:51:11;12.80;;;10.23;;
65045;SDS011;54657;52.022;5.534;2023-04-28T07:53:37;16.20;;;11.57;;
65045;SDS011;54657;52.022;5.534;2023-04-28T07:56:02;13.25;;;10.43;;
65045;SDS011;54657;52.022;5.534;2023-04-28T07:58:28;12.07;;;10.45;;
65045;SDS011;54657;52.022;5.534;2023-04-28T08:00:55;15.55;;;10.70;;
65045;SDS011;54657;52.022;5.534;2023-04-28T08:03:20;14.25;;;10.77;;
65045;SDS011;54657;52.022;5.534;2023-04-28T08:05:46;15.55;;;11.02;;
65045;SDS011;54657;52.022;5.534;2023-04-28T08:08:11;13.57;;;10.43;;
65045;SDS011;54657;52.022;5.534;2023-04-28T08:10:37;14.13;;;10.45;;
65045;SDS011;54657;52.022;5.534;2023-04-28T08:13:06;15.20;;;10.40;;
65045;SDS011;54657;52.022;5.534;2023-04-28T08:15:32;13.13;;;10.65;;
65045;SDS011;54657;52.022;5.534;2023-04-28T08:17:57;16.42;;;10.75;;
65045;SDS011;54657;52.022;5.534;2023-04-28T08:20:23;18.35;;;10.65;;
65045;SDS011;54657;52.022;5.534;2023-04-28T08:22:51;14.80;;;11.25;;
65045;SDS011;54657;52.022;5.534;2023-04-28T08:25:16;15.48;;;11.20;;
65045;SDS011;54657;52.022;5.534;2023-04-28T08:27:42;14.18;;;11.27;;
65045;SDS011;54657;52.022;5.534;2023-04-28T08:30:08;15.55;;;10.95;;
65045;SDS011;54657;52.022;5.534;2023-04-28T08:32:34;15.90;;;10.73;;
65045;SDS011;54657;52.022;5.534;2023-04-28T08:35:00;14.10;;;11.13;;
65045;SDS011;54657;52.022;5.534;2023-04-28T08:37:25;14.30;;;11.05;;
65045;SDS011;54657;52.022;5.534;2023-04-28T08:39:52;14.68;;;11.45;;
65045;SDS011;54657;52.022;5.534;2023-04-28T08:42:27;13.57;;;10.98;;
65045;SDS011;54657;52.022;5.534;2023-04-28T08:44:54;14.45;;;11.65;;
65045;SDS011;54657;52.022;5.534;2023-04-28T08:47:35;14.02;;;10.90;;
65045;SDS011;54657;52.022;5.534;2023-04-28T08:50:24;13.63;;;10.85;;
65045;SDS011;54657;52.022;5.534;2023-04-28T08:55:56;13.50;;;10.48;;
65045;SDS011;54657;52.022;5.534;2023-04-28T08:58:22;14.20;;;10.95;;
65045;SDS011;54657;52.022;5.534;2023-04-28T09:00:49;13.13;;;11.38;;
65045;SDS011;54657;52.022;5.534;2023-04-28T09:03:15;18.85;;;11.50;;
65045;SDS011;54657;52.022;5.534;2023-04-28T09:05:42;15.10;;;11.98;;
65045;SDS011;54657;52.022;5.534;2023-04-28T09:08:10;15.93;;;11.93;;
65045;SDS011;54657;52.022;5.534;2023-04-28T09:11:05;15.27;;;12.13;;
65045;SDS011;54657;52.022;5.534;2023-04-28T09:13:44;14.15;;;11.60;;
65045;SDS011;54657;52.022;5.534;2023-04-28T09:16:39;14.52;;;11.27;;
65045;SDS011;54657;52.022;5.534;2023-04-28T09:19:07;14.80;;;12.15;;
65045;SDS011;54657;52.022;5.534;2023-04-28T09:21:44;16.38;;;11.73;;
65045;SDS011;54657;52.022;5.534;2023-04-28T09:24:30;14.95;;;11.68;;
65045;SDS011;54657;52.022;5.534;2023-04-28T09:27:00;14.57;;;11.32;;
65045;SDS011;54657;52.022;5.534;2023-04-28T09:29:27;14.65;;;11.20;;
65045;SDS011;54657;52.022;5.534;2023-04-28T09:32:17;14.35;;;11.55;;
65045;SDS011;54657;52.022;5.534;2023-04-28T09:34:48;13.35;;;10.88;;
65045;SDS011;54657;52.022;5.534;2023-04-28T09:37:21;13.55;;;11.35;;
65045;SDS011;54657;52.022;5.534;2023-04-28T09:39:57;12.88;;;10.93;;
65045;SDS011;54657;52.022;5.534;2023-04-28T09:42:36;13.18;;;11.77;;
65045;SDS011;54657;52.022;5.534;2023-04-28T09:45:04;14.77;;;11.40;;
65045;SDS011;54657;52.022;5.534;2023-04-28T09:47:31;15.00;;;11.52;;
65045;SDS011;54657;52.022;5.534;2023-04-28T09:50:02;16.63;;;11.82;;
65045;SDS011;54657;52.022;5.534;2023-04-28T09:52:39;13.50;;;10.85;;
65045;SDS011;54657;52.022;5.534;2023-04-28T09:58:06;14.60;;;10.52;;
65045;SDS011;54657;52.022;5.534;2023-04-28T10:00:32;12.77;;;11.25;;
65045;SDS011;54657;52.022;5.534;2023-04-28T10:02:58;11.93;;;10.68;;
65045;SDS011;54657;52.022;5.534;2023-04-28T10:05:24;11.82;;;10.57;;
65045;SDS011;54657;52.022;5.534;2023-04-28T10:07:50;12.70;;;10.25;;
65045;SDS011;54657;52.022;5.534;2023-04-28T10:10:34;11.45;;;10.18;;
65045;SDS011;54657;52.022;5.534;2023-04-28T10:15:53;10.07;;;9.15;;
65045;SDS011;54657;52.022;5.534;2023-04-28T10:21:37;10.77;;;8.98;;
65045;SDS011;54657;52.022;5.534;2023-04-28T10:24:26;10.40;;;8.38;;
65045;SDS011;54657;52.022;5.534;2023-04-28T10:27:04;9.05;;;8.15;;
65045;SDS011;54657;52.022;5.534;2023-04-28T10:29:32;8.85;;;7.80;;
65045;SDS011;54657;52.022;5.534;2023-04-28T10:34:42;9.05;;;8.15;;
65045;SDS011;54657;52.022;5.534;2023-04-28T10:37:08;8.95;;;8.07;;
65045;SDS011;54657;52.022;5.534;2023-04-28T10:39:33;9.35;;;8.55;;
65045;SDS011;54657;52.022;5.534;2023-04-28T10:41:59;9.20;;;8.25;;
65045;SDS011;54657;52.022;5.534;2023-04-28T10:47:03;8.98;;;8.07;;
65045;SDS011;54657;52.022;5.534;2023-04-28T10:55:39;9.68;;;8.35;;
65045;SDS011;54657;52.022;5.534;2023-04-28T10:58:29;11.40;;;10.30;;
65045;SDS011;54657;52.022;5.534;2023-04-28T11:01:03;9.43;;;7.72;;
65045;SDS011;54657;52.022;5.534;2023-04-28T11:03:55;10.27;;;9.27;;
65045;SDS011;54657;52.022;5.534;2023-04-28T11:16:50;9.90;;;8.35;;
65045;SDS011;54657;52.022;5.534;2023-04-28T11:19:18;10.77;;;9.45;;
65045;SDS011;54657;52.022;5.534;2023-04-28T11:21:50;12.63;;;11.25;;
65045;SDS011;54657;52.022;5.534;2023-04-28T11:24:17;15.82;;;12.50;;
65045;SDS011;54657;52.022;5.534;2023-04-28T11:26:43;15.60;;;12.75;;
65045;SDS011;54657;52.022;5.534;2023-04-28T11:29:10;15.82;;;13.88;;
65045;SDS011;54657;52.022;5.534;2023-04-28T11:31:36;14.70;;;12.60;;
65045;SDS011;54657;52.022;5.534;2023-04-28T11:34:03;14.30;;;11.95;;
65045;SDS011;54657;52.022;5.534;2023-04-28T11:36:33;16.15;;;12.43;;
65045;SDS011;54657;52.022;5.534;2023-04-28T11:39:04;15.68;;;12.32;;
65045;SDS011;54657;52.022;5.534;2023-04-28T11:41:35;14.20;;;11.07;;
65045;SDS011;54657;52.022;5.534;2023-04-28T11:46:44;12.90;;;11.50;;
65045;SDS011;54657;52.022;5.534;2023-04-28T11:49:11;13.40;;;10.65;;
65045;SDS011;54657;52.022;5.534;2023-04-28T11:51:39;12.88;;;11.10;;
65045;SDS011;54657;52.022;5.534;2023-04-28T11:54:05;14.18;;;9.95;;
65045;SDS011;54657;52.022;5.534;2023-04-28T11:56:38;9.70;;;7.68;;
65045;SDS011;54657;52.022;5.534;2023-04-28T11:59:05;9.00;;;8.00;;
65045;SDS011;54657;52.022;5.534;2023-04-28T12:01:32;9.82;;;8.10;;
65045;SDS011;54657;52.022;5.534;2023-04-28T12:03:58;9.88;;;7.95;;
65045;SDS011;54657;52.022;5.534;2023-04-28T12:06:24;8.25;;;7.03;;
65045;SDS011;54657;52.022;5.534;2023-04-28T12:08:50;10.73;;;7.22;;
65045;SDS011;54657;52.022;5.534;2023-04-28T12:11:16;8.82;;;7.38;;
65045;SDS011;54657;52.022;5.534;2023-04-28T12:13:42;8.15;;;6.38;;
65045;SDS011;54657;52.022;5.534;2023-04-28T12:16:08;8.52;;;6.40;;
65045;SDS011;54657;52.022;5.534;2023-04-28T12:18:34;8.95;;;6.72;;
65045;SDS011;54657;52.022;5.534;2023-04-28T12:21:00;7.22;;;6.53;;
65045;SDS011;54657;52.022;5.534;2023-04-28T12:23:34;8.75;;;7.00;;
65045;SDS011;54657;52.022;5.534;2023-04-28T12:26:00;8.35;;;6.68;;
65045;SDS011;54657;52.022;5.534;2023-04-28T12:28:39;8.27;;;7.03;;
65045;SDS011;54657;52.022;5.534;2023-04-28T12:31:06;8.80;;;6.72;;
65045;SDS011;54657;52.022;5.534;2023-04-28T12:33:33;8.15;;;7.28;;
65045;SDS011;54657;52.022;5.534;2023-04-28T12:36:03;9.68;;;6.57;;
65045;SDS011;54657;52.022;5.534;2023-04-28T12:38:32;6.57;;;5.97;;
65045;SDS011;54657;52.022;5.534;2023-04-28T12:40:57;7.53;;;6.05;;
65045;SDS011;54657;52.022;5.534;2023-04-28T12:43:23;6.82;;;6.18;;
65045;SDS011;54657;52.022;5.534;2023-04-28T12:45:51;7.03;;;6.32;;
65045;SDS011;54657;52.022;5.534;2023-04-28T12:48:18;7.30;;;6.60;;
65045;SDS011;54657;52.022;5.534;2023-04-28T12:50:44;7.28;;;5.57;;
65045;SDS011;54657;52.022;5.534;2023-04-28T12:53:10;6.82;;;5.75;;
65045;SDS011;54657;52.022;5.534;2023-04-28T12:55:36;5.40;;;4.90;;
65045;SDS011;54657;52.022;5.534;2023-04-28T12:58:04;5.78;;;4.72;;
65045;SDS011;54657;52.022;5.534;2023-04-28T13:00:30;4.72;;;3.95;;
65045;SDS011;54657;52.022;5.534;2023-04-28T13:02:56;4.88;;;4.32;;
65045;SDS011;54657;52.022;5.534;2023-04-28T13:05:22;5.93;;;4.10;;
65045;SDS011;54657;52.022;5.534;2023-04-28T13:07:48;3.42;;;3.10;;
65045;SDS011;54657;52.022;5.534;2023-04-28T13:10:14;2.80;;;2.50;;
65045;SDS011;54657;52.022;5.534;2023-04-28T13:12:40;3.33;;;2.45;;
65045;SDS011;54657;52.022;5.534;2023-04-28T13:15:06;2.35;;;2.10;;
65045;SDS011;54657;52.022;5.534;2023-04-28T13:17:32;2.28;;;2.08;;
65045;SDS011;54657;52.022;5.534;2023-04-28T13:19:59;2.30;;;1.58;;
65045;SDS011;54657;52.022;5.534;2023-04-28T13:22:25;1.70;;;1.60;;
65045;SDS011;54657;52.022;5.534;2023-04-28T13:24:51;1.73;;;1.63;;
65045;SDS011;54657;52.022;5.534;2023-04-28T13:27:17;1.73;;;1.50;;
65045;SDS011;54657;52.022;5.534;2023-04-28T13:29:42;1.58;;;1.48;;
65045;SDS011;54657;52.022;5.534;2023-04-28T13:32:08;1.50;;;1.40;;
65045;SDS011;54657;52.022;5.534;2023-04-28T13:34:33;2.75;;;1.40;;
65045;SDS011;54657;52.022;5.534;2023-04-28T13:37:01;1.70;;;1.60;;
65045;SDS011;54657;52.022;5.534;2023-04-28T13:39:27;1.50;;;1.40;;
65045;SDS011;54657;52.022;5.534;2023-04-28T13:41:53;1.50;;;1.40;;
65045;SDS011;54657;52.022;5.534;2023-04-28T13:44:18;1.92;;;1.50;;
65045;SDS011;54657;52.022;5.534;2023-04-28T13:46:44;1.60;;;1.50;;
65045;SDS011;54657;52.022;5.534;2023-04-28T13:49:11;4.38;;;1.70;;
65045;SDS011;54657;52.022;5.534;2023-04-28T13:51:37;1.67;;;1.58;;
65045;SDS011;54657;52.022;5.534;2023-04-28T13:54:03;2.20;;;2.00;;
65045;SDS011;54657;52.022;5.534;2023-04-28T13:56:32;2.40;;;2.20;;
65045;SDS011;54657;52.022;5.534;2023-04-28T13:58:57;1.83;;;1.73;;
65045;SDS011;54657;52.022;5.534;2023-04-28T14:01:23;2.50;;;2.30;;
65045;SDS011;54657;52.022;5.534;2023-04-28T14:03:49;2.50;;;2.40;;
65045;SDS011;54657;52.022;5.534;2023-04-28T14:06:14;2.85;;;2.67;;
65045;SDS011;54657;52.022;5.534;2023-04-28T14:08:40;2.88;;;2.67;;
65045;SDS011;54657;52.022;5.534;2023-04-28T14:11:06;2.90;;;2.70;;
65045;SDS011;54657;52.022;5.534;2023-04-28T14:13:32;2.40;;;2.22;;
65045;SDS011;54657;52.022;5.534;2023-04-28T14:15:57;2.78;;;2.60;;
65045;SDS011;54657;52.022;5.534;2023-04-28T14:18:23;2.80;;;2.60;;
65045;SDS011;54657;52.022;5.534;2023-04-28T14:20:49;3.08;;;2.88;;
65045;SDS011;54657;52.022;5.534;2023-04-28T14:23:14;3.08;;;2.88;;
65045;SDS011;54657;52.022;5.534;2023-04-28T14:25:40;2.83;;;2.63;;
65045;SDS011;54657;52.022;5.534;2023-04-28T14:28:06;3.00;;;2.80;;
65045;SDS011;54657;52.022;5.534;2023-04-28T14:30:32;3.25;;;2.95;;
65045;SDS011;54657;52.022;5.534;2023-04-28T14:32:58;2.70;;;2.50;;
65045;SDS011;54657;52.022;5.534;2023-04-28T14:35:23;3.05;;;2.88;;
65045;SDS011;54657;52.022;5.534;2023-04-28T14:37:50;2.70;;;2.50;;
65045;SDS011;54657;52.022;5.534;2023-04-28T14:40:16;3.45;;;3.25;;
65045;SDS011;54657;52.022;5.534;2023-04-28T14:42:42;2.85;;;2.65;;
65045;SDS011;54657;52.022;5.534;2023-04-28T14:45:08;2.90;;;2.63;;
65045;SDS011;54657;52.022;5.534;2023-04-28T14:47:35;4.25;;;3.80;;
65045;SDS011;54657;52.022;5.534;2023-04-28T14:50:01;3.80;;;3.50;;
65045;SDS011;54657;52.022;5.534;2023-04-28T14:52:27;4.03;;;3.72;;
65045;SDS011;54657;52.022;5.534;2023-04-28T14:54:54;3.30;;;3.10;;
65045;SDS011;54657;52.022;5.534;2023-04-28T14:57:20;3.00;;;2.80;;
65045;SDS011;54657;52.022;5.534;2023-04-28T14:59:46;3.10;;;2.90;;
65045;SDS011;54657;52.022;5.534;2023-04-28T15:02:11;4.20;;;3.90;;
65045;SDS011;54657;52.022;5.534;2023-04-28T15:04:37;5.03;;;4.57;;
65045;SDS011;54657;52.022;5.534;2023-04-28T15:07:04;5.63;;;5.10;;
65045;SDS011;54657;52.022;5.534;2023-04-28T15:09:32;7.70;;;6.32;;
65045;SDS011;54657;52.022;5.534;2023-04-28T15:11:57;6.78;;;6.13;;
65045;SDS011;54657;52.022;5.534;2023-04-28T15:14:23;8.13;;;6.80;;
65045;SDS011;54657;52.022;5.534;2023-04-28T15:16:48;7.28;;;6.10;;